Time,TemperatureF,DewpointF,PressureIn,WindDirection,WindDirectionDegrees,WindSpeedMPH,WindSpeedGustMPH,Humidity,HourlyPrecipIn,Conditions,Clouds,dailyrainin,SoftwareType,DateUTC
2013-04-21 00:02:00,24.8,22.0,30.45,NW,305,0.0,0.0,90,0.00,,,0.00,weatherlink.com 1.10,2013-04-21 04:02:00,
2013-04-21 00:17:00,24.7,22.0,30.45,NW,305,0.0,0.0,90,0.00,,,0.00,weatherlink.com 1.10,2013-04-21 04:17:00,
2013-04-21 00:32:00,24.1,22.0,30.46,NW,304,0.0,0.0,91,0.00,,,0.00,weatherlink.com 1.10,2013-04-21 04:32:00,
2013-04-21 00:47:00,23.5,22.0,30.47,NW,305,0.0,0.0,92,0.00,,,0.00,weatherlink.com 1.10,2013-04-21 04:47:00,
2013-04-21 01:02:00,24.7,23.0,30.47,NW,304,0.0,0.0,92,0.00,,,0.00,weatherlink.com 1.10,2013-04-21 05:02:00,
2013-04-21 01:18:00,24.3,22.0,30.47,NW,305,0.0,0.0,92,0.00,,,0.00,weatherlink.com 1.10,2013-04-21 05:18:00,
2013-04-21 01:33:00,24.2,22.0,30.48,NW,305,0.0,0.0,92,0.00,,,0.00,weatherlink.com 1.10,2013-04-21 05:33:00,
2013-04-21 01:48:00,23.2,21.0,30.48,NW,305,0.0,0.0,92,0.00,,,0.00,weatherlink.com 1.10,2013-04-21 05:48:00,
2013-04-21 02:03:00,22.1,20.0,30.48,NW,305,0.0,0.0,92,0.00,,,0.00,weatherlink.com 1.10,2013-04-21 06:03:00,
2013-04-21 02:18:00,22.7,21.0,30.48,NW,304,0.0,0.0,93,0.00,,,0.00,weatherlink.com 1.10,2013-04-21 06:18:00,
2013-04-21 02:33:00,22.4,21.0,30.49,NW,305,0.0,0.0,94,0.00,,,0.00,weatherlink.com 1.10,2013-04-21 06:33:00,
2013-04-21 02:48:00,22.2,21.0,30.50,NW,305,0.0,0.0,95,0.00,,,0.00,weatherlink.com 1.10,2013-04-21 06:48:00,
2013-04-21 03:03:00,21.5,20.0,30.50,NW,305,0.0,0.0,95,0.00,,,0.00,weatherlink.com 1.10,2013-04-21 07:03:00,
2013-04-21 03:18:00,23.3,22.0,30.50,NW,305,0.0,0.0,96,0.00,,,0.00,weatherlink.com 1.10,2013-04-21 07:18:00,
2013-04-21 03:33:00,23.7,23.0,30.51,NW,305,0.0,0.0,95,0.00,,,0.00,weatherlink.com 1.10,2013-04-21 07:33:00,
2013-04-21 03:48:00,23.7,22.0,30.51,NW,304,0.0,0.0,94,0.00,,,0.00,weatherlink.com 1.10,2013-04-21 07:48:00,
2013-04-21 04:03:00,23.4,22.0,30.52,NW,304,0.0,0.0,93,0.00,,,0.00,weatherlink.com 1.10,2013-04-21 08:03:00,
2013-04-21 04:18:00,23.0,22.0,30.52,NW,305,0.0,0.0,94,0.00,,,0.00,weatherlink.com 1.10,2013-04-21 08:18:00,
2013-04-21 04:33:00,23.1,22.0,30.52,NW,305,0.0,0.0,94,0.00,,,0.00,weatherlink.com 1.10,2013-04-21 08:33:00,
2013-04-21 04:48:00,23.4,22.0,30.53,NW,305,0.0,0.0,93,0.00,,,0.00,weatherlink.com 1.10,2013-04-21 08:48:00,
2013-04-21 05:03:00,22.4,21.0,30.54,NW,304,0.0,0.0,92,0.00,,,0.00,weatherlink.com 1.10,2013-04-21 09:03:00,
2013-04-21 05:18:00,21.6,20.0,30.54,NW,307,0.0,0.0,94,0.00,,,0.00,weatherlink.com 1.10,2013-04-21 09:18:00,
2013-04-21 05:33:00,22.5,21.0,30.54,East,95,0.0,0.0,93,0.00,,,0.00,weatherlink.com 1.10,2013-04-21 09:33:00,
2013-04-21 05:48:00,22.7,21.0,30.54,East,94,0.0,0.0,93,0.00,,,0.00,weatherlink.com 1.10,2013-04-21 09:48:00,
2013-04-21 06:03:00,22.1,20.0,30.55,East,94,0.0,0.0,92,0.00,,,0.00,weatherlink.com 1.10,2013-04-21 10:03:00,
2013-04-21 06:18:00,21.8,20.0,30.56,East,94,0.0,0.0,93,0.00,,,0.00,weatherlink.com 1.10,2013-04-21 10:18:00,
2013-04-21 06:33:00,21.6,20.0,30.56,East,94,0.0,0.0,93,0.00,,,0.00,weatherlink.com 1.10,2013-04-21 10:33:00,
2013-04-21 06:48:00,20.7,19.0,30.57,East,95,0.0,0.0,93,0.00,,,0.00,weatherlink.com 1.10,2013-04-21 10:48:00,
2013-04-21 07:03:00,20.5,19.0,30.58,East,94,0.0,0.0,94,0.00,,,0.00,weatherlink.com 1.10,2013-04-21 11:03:00,
2013-04-21 07:18:00,23.1,22.0,30.59,East,94,0.0,0.0,94,0.00,,,0.00,weatherlink.com 1.10,2013-04-21 11:18:00,
2013-04-21 07:33:00,25.7,24.0,30.60,East,94,0.0,0.0,92,0.00,,,0.00,weatherlink.com 1.10,2013-04-21 11:33:00,
2013-04-21 07:48:00,27.3,25.0,30.61,East,94,0.0,0.0,90,0.00,,,0.00,weatherlink.com 1.10,2013-04-21 11:48:00,
2013-04-21 08:03:00,28.9,26.0,30.61,East,94,0.0,0.0,88,0.00,,,0.00,weatherlink.com 1.10,2013-04-21 12:03:00,
2013-04-21 08:18:00,32.2,28.0,30.62,East,95,0.0,1.0,84,0.00,,,0.00,weatherlink.com 1.10,2013-04-21 12:18:00,
2013-04-21 08:34:00,33.1,28.0,30.62,East,79,1.0,1.0,80,0.00,,,0.00,weatherlink.com 1.10,2013-04-21 12:34:00,
2013-04-21 08:49:00,33.7,27.0,30.63,ENE,65,1.0,3.0,77,0.00,,,0.00,weatherlink.com 1.10,2013-04-21 12:49:00,
2013-04-21 09:04:00,34.8,27.0,30.63,East,79,0.0,4.0,73,0.00,,,0.00,weatherlink.com 1.10,2013-04-21 13:04:00,
2013-04-21 09:19:00,36.0,26.0,30.63,East,84,5.0,7.0,67,0.00,,,0.00,weatherlink.com 1.10,2013-04-21 13:19:00,
2013-04-21 09:34:00,37.0,25.0,30.63,ESE,114,2.0,7.0,62,0.00,,,0.00,weatherlink.com 1.10,2013-04-21 13:34:00,
2013-04-21 09:49:00,37.6,24.0,30.63,ENE,62,5.0,10.0,58,0.00,,,0.00,weatherlink.com 1.10,2013-04-21 13:49:00,
2013-04-21 10:04:00,38.0,24.0,30.63,ENE,70,4.0,10.0,58,0.00,,,0.00,weatherlink.com 1.10,2013-04-21 14:04:00,
2013-04-21 10:19:00,38.7,24.0,30.63,SE,129,4.0,8.0,56,0.00,,,0.00,weatherlink.com 1.10,2013-04-21 14:19:00,
2013-04-21 10:34:00,39.1,24.0,30.63,SSE,165,2.0,7.0,56,0.00,,,0.00,weatherlink.com 1.10,2013-04-21 14:34:00,
2013-04-21 10:49:00,39.5,23.0,30.63,SSE,156,5.0,8.0,53,0.00,,,0.00,weatherlink.com 1.10,2013-04-21 14:49:00,
2013-04-21 11:04:00,40.3,24.0,30.63,South,173,2.0,9.0,53,0.00,,,0.00,weatherlink.com 1.10,2013-04-21 15:04:00,
2013-04-21 11:19:00,40.7,23.0,30.62,SSE,153,4.0,9.0,49,0.00,,,0.00,weatherlink.com 1.10,2013-04-21 15:19:00,
2013-04-21 11:34:00,41.6,24.0,30.62,South,187,5.0,10.0,49,0.00,,,0.00,weatherlink.com 1.10,2013-04-21 15:34:00,
2013-04-21 11:49:00,42.5,25.0,30.63,SE,132,3.0,7.0,51,0.00,,,0.00,weatherlink.com 1.10,2013-04-21 15:49:00,
2013-04-21 12:04:00,43.0,23.0,30.62,SSE,163,5.0,8.0,45,0.00,,,0.00,weatherlink.com 1.10,2013-04-21 16:04:00,
2013-04-21 12:19:00,43.1,24.0,30.61,SE,143,8.0,8.0,48,0.00,,,0.00,weatherlink.com 1.10,2013-04-21 16:19:00,
2013-04-21 12:49:00,44.4,26.0,30.60,SW,221,8.0,10.0,48,0.00,,,0.00,weatherlink.com 1.10,2013-04-21 16:49:00,
2013-04-21 13:04:00,45.0,25.0,30.60,SE,143,2.0,11.0,45,0.00,,,0.00,weatherlink.com 1.10,2013-04-21 17:04:00,
2013-04-21 13:19:00,45.5,26.0,30.59,East,79,8.0,13.0,46,0.00,,,0.00,weatherlink.com 1.10,2013-04-21 17:19:00,
2013-04-21 13:34:00,45.6,26.0,30.59,SE,140,4.0,13.0,46,0.00,,,0.00,weatherlink.com 1.10,2013-04-21 17:34:00,
2013-04-21 13:49:00,46.5,24.0,30.58,South,172,7.0,12.0,41,0.00,,,0.00,weatherlink.com 1.10,2013-04-21 17:49:00,
2013-04-21 14:04:00,46.9,26.0,30.57,SSE,151,3.0,9.0,44,0.00,,,0.00,weatherlink.com 1.10,2013-04-21 18:04:00,
2013-04-21 14:19:00,47.3,26.0,30.57,SE,132,2.0,16.0,43,0.00,,,0.00,weatherlink.com 1.10,2013-04-21 18:19:00,
2013-04-21 14:35:00,47.2,25.0,30.57,South,191,4.0,12.0,42,0.00,,,0.00,weatherlink.com 1.10,2013-04-21 18:35:00,
2013-04-21 14:50:00,47.6,24.0,30.56,SE,136,3.0,12.0,40,0.00,,,0.00,weatherlink.com 1.10,2013-04-21 18:50:00,
2013-04-21 15:05:00,48.3,25.0,30.55,South,172,5.0,12.0,41,0.00,,,0.00,weatherlink.com 1.10,2013-04-21 19:05:00,
2013-04-21 15:20:00,48.9,27.0,30.54,East,89,6.0,9.0,42,0.00,,,0.00,weatherlink.com 1.10,2013-04-21 19:20:00,
2013-04-21 15:35:00,49.0,25.0,30.54,East,84,9.0,10.0,39,0.00,,,0.00,weatherlink.com 1.10,2013-04-21 19:35:00,
2013-04-21 15:50:00,49.2,26.0,30.53,SSE,147,2.0,12.0,40,0.00,,,0.00,weatherlink.com 1.10,2013-04-21 19:50:00,
2013-04-21 16:05:00,49.9,27.0,30.52,ESE,120,6.0,12.0,41,0.00,,,0.00,weatherlink.com 1.10,2013-04-21 20:05:00,
2013-04-21 16:20:00,50.2,25.0,30.52,SE,143,3.0,13.0,37,0.00,,,0.00,weatherlink.com 1.10,2013-04-21 20:20:00,
2013-04-21 16:35:00,49.9,26.0,30.51,ESE,106,4.0,12.0,39,0.00,,,0.00,weatherlink.com 1.10,2013-04-21 20:35:00,
2013-04-21 17:20:00,49.9,26.0,30.49,South,177,2.0,11.0,39,0.00,,,0.00,weatherlink.com 1.10,2013-04-21 21:20:00,
2013-04-21 17:36:00,49.8,26.0,30.49,SSE,150,8.0,10.0,40,0.00,,,0.00,weatherlink.com 1.10,2013-04-21 21:36:00,
2013-04-21 17:52:00,50.4,26.0,30.48,South,176,5.0,10.0,39,0.00,,,0.00,weatherlink.com 1.10,2013-04-21 21:52:00,
2013-04-21 18:05:00,49.9,26.0,30.48,SW,226,2.0,11.0,40,0.00,,,0.00,weatherlink.com 1.10,2013-04-21 22:05:00,
2013-04-21 18:19:00,50.2,28.0,30.48,SW,232,10.0,10.0,43,0.00,,,0.00,weatherlink.com 1.10,2013-04-21 22:19:00,
2013-04-21 18:50:00,49.5,28.0,30.48,ESE,122,3.0,8.0,44,0.00,,,0.00,weatherlink.com 1.10,2013-04-21 22:50:00,
2013-04-21 19:05:00,48.5,27.0,30.47,East,87,5.0,9.0,44,0.00,,,0.00,weatherlink.com 1.10,2013-04-21 23:05:00,
2013-04-21 19:20:00,47.8,27.0,30.48,SE,136,3.0,9.0,45,0.00,,,0.00,weatherlink.com 1.10,2013-04-21 23:20:00,
2013-04-21 19:35:00,47.1,26.0,30.48,SE,141,6.0,12.0,44,0.00,,,0.00,weatherlink.com 1.10,2013-04-21 23:35:00,
2013-04-21 19:50:00,46.2,26.0,30.48,SSE,159,4.0,13.0,46,0.00,,,0.00,weatherlink.com 1.10,2013-04-21 23:50:00,
2013-04-21 20:05:00,45.1,27.0,30.48,ESE,110,6.0,11.0,49,0.00,,,0.00,weatherlink.com 1.10,2013-04-22 00:05:00,
2013-04-21 20:20:00,43.7,26.0,30.47,East,93,6.0,10.0,51,0.00,,,0.00,weatherlink.com 1.10,2013-04-22 00:20:00,
2013-04-21 20:35:00,42.8,26.0,30.48,SE,146,3.0,11.0,51,0.00,,,0.00,weatherlink.com 1.10,2013-04-22 00:35:00,
2013-04-21 20:50:00,42.1,25.0,30.48,ESE,107,4.0,11.0,52,0.00,,,0.00,weatherlink.com 1.10,2013-04-22 00:50:00,
2013-04-21 21:05:00,41.5,26.0,30.48,SE,132,5.0,8.0,54,0.00,,,0.00,weatherlink.com 1.10,2013-04-22 01:05:00,
2013-04-21 21:20:00,40.8,26.0,30.48,SE,128,4.0,9.0,55,0.00,,,0.00,weatherlink.com 1.10,2013-04-22 01:20:00,
2013-04-21 21:35:00,40.4,24.0,30.48,ESE,120,2.0,10.0,52,0.00,,,0.00,weatherlink.com 1.10,2013-04-22 01:35:00,
2013-04-21 21:50:00,39.7,24.0,30.49,East,86,3.0,5.0,54,0.00,,,0.00,weatherlink.com 1.10,2013-04-22 01:50:00,
2013-04-21 22:05:00,39.3,23.0,30.49,SSE,151,2.0,6.0,52,0.00,,,0.00,weatherlink.com 1.10,2013-04-22 02:05:00,
2013-04-21 22:20:00,38.6,23.0,30.49,SE,129,1.0,4.0,53,0.00,,,0.00,weatherlink.com 1.10,2013-04-22 02:20:00,
2013-04-21 22:35:00,38.4,23.0,30.48,SE,143,2.0,7.0,55,0.00,,,0.00,weatherlink.com 1.10,2013-04-22 02:35:00,
2013-04-21 22:50:00,38.1,23.0,30.48,ESE,113,1.0,5.0,56,0.00,,,0.00,weatherlink.com 1.10,2013-04-22 02:50:00,
2013-04-21 23:05:00,37.7,24.0,30.47,SE,138,3.0,4.0,58,0.00,,,0.00,weatherlink.com 1.10,2013-04-22 03:05:00,
2013-04-21 23:20:00,37.1,24.0,30.47,SSE,151,0.0,2.0,60,0.00,,,0.00,weatherlink.com 1.10,2013-04-22 03:20:00,
2013-04-21 23:35:00,36.8,24.0,30.46,ESE,104,1.0,3.0,61,0.00,,,0.00,weatherlink.com 1.10,2013-04-22 03:35:00,
2013-04-21 23:50:00,36.6,25.0,30.46,East,98,2.0,4.0,63,0.00,,,0.00,weatherlink.com 1.10,2013-04-22 03:50:00,